Picture Butte, Canada
Current Conditions -  °F | °C
As of 9:00 PM on Friday 19 Dec 2014 (Local Time) from CYQL Reporting Station
Overcast Overcast  
Wind Chill: 27°   Ceiling: 15000
Heat Index: 37°   Visibility: 15mi
Dew Point: 30°   Wind: 20mph
Humidity: 75%   Direction: 240°WSW
Pressure: 29.71"   Gusts: NA
Location:  49.87°N, 112.78°W
Report Text: CYQL 200400Z 24017KT 15SM BKN150 OVC250 03/M01 A2971 RMK AC5CI3 SLP092
Loading
Personal Weather Stations






























Interactive Weather Map New forecast layout! Learn more

10-Day Weather Forecast

Advertisements
Track Severe Weather on mobile